Time;durP1;ratioP1;P1;durP2;ratioP2;P2;SDS_P1;SDS_P2;PMS_P1;PMS_P2;Temp;Humidity;BMP_temperature;BMP_pressure;BME280_temperature;BME280_humidity;BME280_pressure;Samples;Min_cycle;Max_cycle;Signal;HPM_P1;HPM_P2
2022/05/27 00:00:41;;;;;;;10.23;2.38;;;12.80;99.90;;;;;;5077772;28;20068;-86
2022/05/27 00:03:30;;;;;;;5.60;2.00;;;12.70;99.90;;;;;;5082622;28;20417;-85
2022/05/27 00:06:17;;;;;;;2.28;1.60;;;12.70;99.90;;;;;;5067325;28;20061;-88
2022/05/27 00:09:05;;;;;;;1.90;1.50;;;12.70;99.90;;;;;;5075200;28;20123;-87
2022/05/27 00:11:52;;;;;;;3.00;1.80;;;12.60;99.90;;;;;;5069246;28;20167;-86
2022/05/27 00:14:39;;;;;;;2.75;1.90;;;12.50;99.90;;;;;;5085731;28;20060;-84
2022/05/27 00:17:27;;;;;;;6.10;2.30;;;12.50;99.90;;;;;;5090882;28;20104;-87
2022/05/27 00:20:14;;;;;;;6.22;1.70;;;12.50;99.90;;;;;;5068076;28;20413;-88
2022/05/27 00:23:02;;;;;;;2.97;1.98;;;12.50;99.90;;;;;;5069134;28;20052;-85
2022/05/27 00:25:49;;;;;;;2.50;1.73;;;12.50;99.90;;;;;;5078624;28;20040;-85
2022/05/27 00:28:42;;;;;;;3.47;2.05;;;12.40;99.90;;;;;;5100431;28;20044;-85
2022/05/27 00:31:32;;;;;;;4.97;1.83;;;12.40;99.90;;;;;;5095272;28;20041;-85
2022/05/27 00:34:20;;;;;;;5.65;1.98;;;12.40;99.90;;;;;;5092268;28;20062;-85
2022/05/27 00:37:07;;;;;;;5.00;1.70;;;12.50;99.90;;;;;;5087635;28;20130;-86
2022/05/27 00:39:56;;;;;;;4.90;2.33;;;12.40;99.90;;;;;;5092833;28;20193;-85
2022/05/27 00:42:46;;;;;;;4.63;2.15;;;12.40;99.90;;;;;;5082002;28;20055;-85
2022/05/27 00:45:35;;;;;;;2.30;1.83;;;12.30;99.90;;;;;;5072563;28;20056;-82
2022/05/27 00:48:27;;;;;;;3.75;2.03;;;12.20;99.90;;;;;;5071574;28;20097;-85
2022/05/27 00:51:25;;;;;;;2.92;2.08;;;12.10;99.90;;;;;;5082780;28;20448;-85
2022/05/27 00:54:19;;;;;;;3.80;1.90;;;12.00;99.90;;;;;;5073464;28;20056;-88
2022/05/27 00:57:25;;;;;;;5.45;1.90;;;11.90;99.90;;;;;;5061496;28;20141;-85
2022/05/27 01:00:17;;;;;;;2.50;1.98;;;11.80;99.90;;;;;;5067305;28;20393;-84
2022/05/27 01:03:06;;;;;;;2.00;1.80;;;11.70;99.90;;;;;;5083504;28;20468;-85
2022/05/27 01:05:54;;;;;;;5.20;2.20;;;11.60;99.90;;;;;;5070470;28;20044;-85
2022/05/27 01:08:42;;;;;;;3.85;2.10;;;11.60;99.90;;;;;;5055851;28;20059;-85
2022/05/27 01:11:29;;;;;;;6.90;2.53;;;11.60;99.90;;;;;;5074574;28;20526;-86
2022/05/27 01:14:54;;;;;;;6.43;2.20;;;11.60;99.90;;;;;;5058200;28;20209;-85
2022/05/27 01:18:06;;;;;;;5.97;2.65;;;11.60;99.90;;;;;;5082326;28;20064;-84
2022/05/27 01:21:06;;;;;;;4.95;2.33;;;11.60;99.90;;;;;;5071361;28;20076;-87
2022/05/27 01:24:25;;;;;;;5.10;2.28;;;11.60;99.90;;;;;;5079575;28;20130;-87
2022/05/27 01:27:47;;;;;;;5.97;2.10;;;11.60;99.90;;;;;;5061214;28;20052;-86
2022/05/27 01:30:48;;;;;;;4.82;1.80;;;11.60;99.90;;;;;;5064330;28;20056;-86
2022/05/27 01:34:04;;;;;;;4.88;2.50;;;11.60;99.90;;;;;;5053877;28;20063;-85
2022/05/27 01:37:01;;;;;;;3.20;2.20;;;11.60;99.90;;;;;;5054331;28;20053;-85
2022/05/27 01:40:14;;;;;;;3.92;1.98;;;11.60;99.90;;;;;;5055068;28;20116;-88
2022/05/27 01:43:04;;;;;;;4.00;2.20;;;11.50;99.90;;;;;;5054633;28;20076;-85
2022/05/27 01:45:57;;;;;;;3.53;2.30;;;11.50;99.90;;;;;;5054146;28;20435;-87
2022/05/27 01:49:00;;;;;;;2.58;2.00;;;11.50;99.90;;;;;;5059063;28;20048;-86
2022/05/27 01:52:07;;;;;;;;;;;11.40;99.90;;;;;;5074963;28;20527;-86
2022/05/27 01:55:11;;;;;;;5.35;2.50;;;11.40;99.90;;;;;;5079406;28;19992;-83
2022/05/27 01:58:02;;;;;;;8.10;2.90;;;11.30;99.90;;;;;;5073370;28;20076;-86
2022/05/27 02:00:53;;;;;;;4.63;2.95;;;11.20;99.90;;;;;;5076523;28;20170;-86
2022/05/27 02:03:46;;;;;;;6.00;2.60;;;11.10;99.90;;;;;;5082247;28;20136;-86
2022/05/27 02:06:41;;;;;;;4.78;2.70;;;11.00;99.90;;;;;;5063591;28;20138;-84
2022/05/27 02:09:42;;;;;;;7.55;2.75;;;10.90;99.90;;;;;;5047364;28;20041;-86
2022/05/27 02:12:35;;;;;;;4.72;2.88;;;10.90;99.90;;;;;;5073376;28;20040;-88
2022/05/27 02:15:37;;;;;;;;;;;11.00;99.90;;;;;;5062458;28;20148;-85
2022/05/27 02:18:36;;;;;;;3.15;2.40;;;11.10;99.90;;;;;;5087563;28;19931;-87
2022/05/27 02:21:52;;;;;;;4.07;2.35;;;11.10;99.90;;;;;;5086198;28;20083;-85
2022/05/27 02:24:45;;;;;;;5.28;2.17;;;11.00;99.90;;;;;;5080562;28;20127;-87
2022/05/27 02:27:45;;;;;;;2.72;2.30;;;11.10;99.90;;;;;;5057101;28;20105;-84
2022/05/27 02:30:36;;;;;;;4.03;2.30;;;11.10;99.90;;;;;;5046547;28;20369;-85
2022/05/27 02:36:40;;;;;;;3.90;1.90;;;10.90;99.90;;;;;;5092353;28;20063;-87
2022/05/27 02:39:27;;;;;;;3.00;2.70;;;10.90;99.90;;;;;;5080414;28;20130;-87
2022/05/27 02:42:36;;;;;;;4.75;3.10;;;10.90;99.90;;;;;;5063993;28;20491;-82
2022/05/27 02:45:35;;;;;;;4.78;2.33;;;10.80;99.90;;;;;;5063471;28;20044;-85
2022/05/27 02:48:28;;;;;;;3.25;2.55;;;10.70;99.90;;;;;;5072089;28;20040;-85
2022/05/27 02:51:28;;;;;;;3.83;2.65;;;10.60;99.90;;;;;;5068665;28;20462;-85
2022/05/27 02:54:30;;;;;;;2.70;2.40;;;10.60;99.90;;;;;;5082583;28;20037;-82
2022/05/27 02:57:36;;;;;;;4.53;2.80;;;10.70;99.90;;;;;;5068783;28;20415;-85
2022/05/27 03:00:27;;;;;;;4.07;2.63;;;10.70;99.90;;;;;;5077931;28;20060;-85
2022/05/27 03:03:14;;;;;;;4.22;2.40;;;10.60;99.90;;;;;;5061393;28;20056;-87
2022/05/27 03:06:20;;;;;;;4.03;2.35;;;10.70;99.90;;;;;;5072207;28;20189;-86
2022/05/27 03:09:10;;;;;;;5.25;2.60;;;10.80;99.90;;;;;;5095474;28;20058;-84
2022/05/27 03:12:09;;;;;;;8.60;2.97;;;10.80;99.90;;;;;;5108278;28;20445;-86
2022/05/27 03:15:10;;;;;;;4.47;2.65;;;10.80;99.90;;;;;;5114266;28;20126;-85
2022/05/27 03:18:30;;;;;;;3.42;2.88;;;10.80;99.90;;;;;;5084832;28;20048;-87
2022/05/27 03:21:35;;;;;;;6.22;3.00;;;10.80;99.90;;;;;;5098272;28;20059;-85
2022/05/27 03:24:47;;;;;;;5.68;2.28;;;10.70;99.90;;;;;;5081983;28;20357;-86
2022/05/27 03:27:44;;;;;;;5.45;2.92;;;10.70;99.90;;;;;;5114383;28;20039;-86
2022/05/27 03:30:36;;;;;;;4.10;2.53;;;10.70;99.90;;;;;;5094648;28;20135;-84
2022/05/27 03:33:35;;;;;;;6.63;3.25;;;10.70;99.90;;;;;;5099845;28;20141;-85
2022/05/27 03:36:53;;;;;;;3.92;2.85;;;10.60;99.90;;;;;;5114317;28;20075;-84
2022/05/27 03:39:49;;;;;;;5.32;2.75;;;10.50;99.90;;;;;;5092461;28;20133;-85
2022/05/27 03:42:39;;;;;;;3.30;2.70;;;10.50;99.90;;;;;;5102054;28;20064;-84
2022/05/27 03:45:26;;;;;;;4.15;2.63;;;10.50;99.90;;;;;;5098654;28;20098;-86
2022/05/27 03:48:15;;;;;;;4.75;2.75;;;10.50;99.90;;;;;;5064402;28;20045;-84
2022/05/27 03:51:26;;;;;;;3.08;2.70;;;10.50;99.90;;;;;;5087104;28;20040;-84
2022/05/27 03:54:16;;;;;;;6.82;3.00;;;10.40;99.90;;;;;;5100458;28;20040;-85
2022/05/27 03:57:04;;;;;;;6.82;2.65;;;10.40;99.90;;;;;;5091188;28;20481;-86
2022/05/27 03:59:53;;;;;;;3.78;2.85;;;10.50;99.90;;;;;;5085498;28;20052;-89
2022/05/27 04:02:41;;;;;;;4.40;2.75;;;10.50;99.90;;;;;;5080251;28;20032;-84
2022/05/27 04:05:28;;;;;;;3.60;2.72;;;10.70;99.90;;;;;;5087930;28;20171;-84
2022/05/27 04:08:18;;;;;;;3.40;2.58;;;10.80;99.90;;;;;;5062384;28;20140;-86
2022/05/27 04:11:07;;;;;;;5.72;2.78;;;11.00;99.90;;;;;;5067168;28;20396;-86
2022/05/27 04:13:55;;;;;;;5.90;2.70;;;11.00;99.90;;;;;;5112414;28;20241;-85
2022/05/27 04:16:44;;;;;;;5.50;2.83;;;11.10;99.90;;;;;;5099612;28;20060;-86
2022/05/27 04:19:34;;;;;;;3.60;2.47;;;11.20;99.90;;;;;;5070707;28;20119;-84
2022/05/27 04:22:21;;;;;;;3.63;2.67;;;11.30;99.90;;;;;;5093132;28;20047;-87
2022/05/27 04:25:09;;;;;;;5.03;2.50;;;11.40;99.90;;;;;;5104269;28;20081;-88
2022/05/27 04:27:56;;;;;;;5.57;2.85;;;11.50;99.90;;;;;;5107156;28;20052;-87
2022/05/27 04:30:45;;;;;;;5.07;2.35;;;11.50;99.90;;;;;;5088905;28;20525;-87
2022/05/27 04:33:32;;;;;;;6.53;2.38;;;11.60;99.90;;;;;;5087832;28;20134;-86
2022/05/27 04:36:19;;;;;;;4.05;2.28;;;11.70;99.90;;;;;;5101498;28;20408;-85
2022/05/27 04:39:09;;;;;;;6.78;2.70;;;11.70;99.90;;;;;;5109179;28;20052;-82
2022/05/27 04:41:56;;;;;;;7.55;2.60;;;11.70;99.90;;;;;;5080675;28;20102;-83
2022/05/27 04:44:44;;;;;;;5.05;2.33;;;11.70;99.90;;;;;;5098492;28;20048;-86
2022/05/27 04:47:32;;;;;;;5.68;2.45;;;11.70;99.90;;;;;;5078967;28;20251;-84
2022/05/27 04:50:22;;;;;;;3.97;2.38;;;11.70;99.90;;;;;;5099810;28;20051;-84
2022/05/27 04:53:10;;;;;;;6.57;2.78;;;11.70;99.90;;;;;;5113256;28;20063;-84
2022/05/27 04:55:58;;;;;;;3.97;2.40;;;11.70;99.90;;;;;;5084242;28;20048;-84
2022/05/27 04:58:45;;;;;;;5.70;2.92;;;11.60;99.90;;;;;;5092530;28;20048;-86
2022/05/27 05:01:34;;;;;;;4.00;2.88;;;11.60;99.90;;;;;;5081299;28;20072;-86
2022/05/27 05:04:23;;;;;;;3.10;2.63;;;11.60;99.90;;;;;;5089656;28;20048;-83
2022/05/27 05:07:11;;;;;;;4.20;2.80;;;11.70;99.90;;;;;;5093520;28;20051;-82
2022/05/27 05:09:58;;;;;;;3.20;2.30;;;11.80;99.90;;;;;;5094815;28;20126;-81
2022/05/27 05:12:45;;;;;;;6.93;3.10;;;11.90;99.90;;;;;;5095278;28;20184;-84
2022/05/27 05:15:38;;;;;;;7.07;3.17;;;12.10;99.90;;;;;;5080484;28;20104;-84
2022/05/27 05:18:27;;;;;;;3.13;2.60;;;12.20;99.90;;;;;;5089473;28;20080;-86
2022/05/27 05:21:15;;;;;;;5.07;2.72;;;12.30;99.90;;;;;;5088958;28;20049;-87
2022/05/27 05:24:04;;;;;;;5.88;2.88;;;12.40;99.90;;;;;;5083505;28;20094;-88
2022/05/27 05:26:51;;;;;;;4.13;3.00;;;12.50;99.90;;;;;;5075433;28;20076;-85
2022/05/27 05:29:41;;;;;;;4.25;2.45;;;12.70;99.90;;;;;;5092121;28;20065;-86
2022/05/27 05:32:28;;;;;;;3.83;2.45;;;12.80;99.90;;;;;;5095109;28;20105;-87
2022/05/27 05:35:16;;;;;;;3.88;2.35;;;13.00;99.90;;;;;;5060678;28;20453;-88
2022/05/27 05:38:04;;;;;;;4.57;2.83;;;13.20;99.90;;;;;;5069288;28;20051;-86
2022/05/27 05:40:54;;;;;;;8.55;2.58;;;13.40;99.90;;;;;;5082379;28;20106;-85
2022/05/27 05:43:42;;;;;;;6.93;2.53;;;13.50;99.90;;;;;;5073196;28;20103;-84
2022/05/27 05:46:34;;;;;;;7.13;2.55;;;13.60;99.90;;;;;;5091542;28;20048;-86
2022/05/27 05:49:21;;;;;;;11.13;2.92;;;13.60;99.90;;;;;;5072237;28;20049;-87
2022/05/27 05:52:09;;;;;;;4.22;2.63;;;13.50;99.90;;;;;;5085912;28;20123;-86
2022/05/27 05:54:57;;;;;;;5.18;2.88;;;13.50;99.90;;;;;;5069768;28;20444;-86
2022/05/27 05:57:49;;;;;;;5.47;2.58;;;13.50;99.90;;;;;;5063720;28;20123;-84
2022/05/27 06:00:36;;;;;;;5.75;2.35;;;13.50;99.90;;;;;;5075831;28;20466;-83
2022/05/27 06:03:24;;;;;;;5.18;2.70;;;13.60;99.90;;;;;;5092904;28;20040;-88
2022/05/27 06:06:12;;;;;;;4.88;2.35;;;13.50;99.90;;;;;;5105669;28;20044;-86
2022/05/27 06:08:59;;;;;;;5.32;2.67;;;13.50;99.90;;;;;;5106839;28;20135;-86
2022/05/27 06:11:46;;;;;;;6.85;3.25;;;13.50;99.90;;;;;;5092002;28;20119;-87
2022/05/27 06:14:37;;;;;;;6.47;2.33;;;13.50;99.90;;;;;;5082407;28;20048;-84
2022/05/27 06:17:25;;;;;;;5.50;2.90;;;13.50;99.90;;;;;;5098704;28;20067;-86
2022/05/27 06:20:15;;;;;;;4.13;2.58;;;13.60;99.90;;;;;;5096795;28;20080;-85
2022/05/27 06:23:04;;;;;;;6.85;3.00;;;13.60;99.90;;;;;;5093654;28;20055;-85
2022/05/27 06:26:04;;;;;;;4.80;2.90;;;13.60;99.90;;;;;;5080902;28;20101;-88
2022/05/27 06:35:07;;;;;;;6.45;2.80;;;13.70;99.90;;;;;;5080771;28;20059;-89
2022/05/27 06:37:54;;;;;;;6.40;3.15;;;13.70;99.90;;;;;;5089841;28;20080;-87
2022/05/27 06:40:42;;;;;;;6.07;2.53;;;13.70;99.90;;;;;;5077204;28;20109;-88
2022/05/27 06:43:31;;;;;;;3.70;2.55;;;13.80;99.90;;;;;;5099838;28;20441;-84
2022/05/27 06:46:21;;;;;;;6.82;2.97;;;13.80;99.90;;;;;;5108451;28;20131;-85
2022/05/27 06:49:08;;;;;;;7.43;2.88;;;13.80;99.90;;;;;;5092495;28;20058;-84
2022/05/27 06:51:56;;;;;;;4.47;3.10;;;13.70;99.90;;;;;;5093777;28;20097;-87
2022/05/27 06:54:45;;;;;;;4.47;3.08;;;13.80;99.90;;;;;;5079740;28;20129;-86
2022/05/27 06:57:37;;;;;;;8.13;3.35;;;13.80;99.90;;;;;;5095355;28;20159;-86
2022/05/27 07:00:24;;;;;;;6.57;3.38;;;13.80;99.90;;;;;;5100427;28;20102;-83
2022/05/27 07:03:13;;;;;;;5.18;3.63;;;13.80;99.90;;;;;;5094557;28;20185;-83
2022/05/27 07:06:00;;;;;;;6.32;3.20;;;14.00;99.90;;;;;;5085653;28;20049;-85
2022/05/27 07:08:48;;;;;;;7.57;3.38;;;14.10;99.90;;;;;;5101812;28;20048;-86
2022/05/27 07:11:37;;;;;;;8.45;2.60;;;14.20;99.90;;;;;;5114910;28;20043;-85
2022/05/27 07:14:29;;;;;;;3.33;2.50;;;14.30;99.90;;;;;;5086525;28;20388;-84
2022/05/27 07:17:16;;;;;;;6.28;2.80;;;14.40;99.90;;;;;;5095386;28;20395;-83
2022/05/27 07:20:05;;;;;;;8.48;3.67;;;14.50;99.90;;;;;;5110246;28;20062;-86
2022/05/27 07:22:52;;;;;;;9.40;2.90;;;14.50;99.90;;;;;;5120330;27;20086;-85
2022/05/27 07:25:46;;;;;;;6.00;3.20;;;14.60;99.90;;;;;;5077212;28;20053;-86
2022/05/27 07:28:34;;;;;;;3.95;2.95;;;14.70;99.90;;;;;;5093742;28;20125;-81
2022/05/27 07:31:21;;;;;;;4.85;2.88;;;14.80;99.90;;;;;;5096057;28;20465;-83
2022/05/27 07:34:11;;;;;;;6.97;3.20;;;14.90;99.90;;;;;;5096627;28;20052;-87
2022/05/27 07:37:00;;;;;;;7.47;3.35;;;15.10;99.90;;;;;;5077753;28;20114;-85
2022/05/27 07:39:47;;;;;;;6.30;3.05;;;15.20;99.90;;;;;;5076037;28;20060;-85
2022/05/27 07:42:38;;;;;;;4.90;2.63;;;15.40;99.90;;;;;;5087283;28;20047;-84
2022/05/27 07:45:39;;;;;;;3.75;2.60;;;15.40;99.90;;;;;;5084459;28;20052;-86
2022/05/27 07:48:26;;;;;;;7.03;3.13;;;15.20;99.90;;;;;;5068467;28;20045;-83
2022/05/27 07:51:14;;;;;;;3.72;2.67;;;15.10;99.90;;;;;;5067536;28;20080;-85
2022/05/27 07:54:02;;;;;;;7.20;2.67;;;15.20;99.90;;;;;;5081917;28;20350;-84
2022/05/27 07:56:52;;;;;;;4.35;2.85;;;15.20;99.90;;;;;;5098939;28;20044;-83
2022/05/27 07:59:39;;;;;;;4.13;2.53;;;15.20;99.90;;;;;;5097870;28;20113;-83
2022/05/27 08:02:29;;;;;;;5.50;2.50;;;15.20;99.90;;;;;;5079384;28;20059;-82
2022/05/27 08:05:20;;;;;;;5.53;2.65;;;15.20;99.90;;;;;;5075427;28;20451;-84
2022/05/27 08:08:08;;;;;;;5.07;2.88;;;15.40;99.90;;;;;;5087459;28;20052;-85
2022/05/27 08:10:56;;;;;;;7.47;2.65;;;15.50;99.90;;;;;;5082103;28;20083;-83
2022/05/27 08:13:45;;;;;;;4.95;2.50;;;15.50;99.90;;;;;;5090609;28;20041;-87
2022/05/27 08:16:33;;;;;;;4.50;2.70;;;15.60;99.90;;;;;;5094155;28;20067;-85
2022/05/27 08:19:21;;;;;;;9.10;3.03;;;15.60;99.90;;;;;;5084334;28;20368;-85
2022/05/27 08:22:08;;;;;;;3.85;2.15;;;15.60;99.90;;;;;;5114043;28;20054;-83
2022/05/27 08:24:58;;;;;;;7.43;2.50;;;15.50;99.90;;;;;;5112357;28;20055;-85
2022/05/27 08:27:46;;;;;;;4.38;2.65;;;15.50;99.90;;;;;;5080776;28;20425;-83
2022/05/27 08:30:37;;;;;;;6.13;2.83;;;15.40;99.90;;;;;;5063329;28;20496;-85
2022/05/27 08:38:00;;;;;;;5.80;2.80;;;15.30;99.90;;;;;;5095097;28;20457;-85
2022/05/27 08:39:43;;;;;;;6.35;2.72;;;15.20;99.90;;;;;;5090822;28;20048;-84
2022/05/27 08:42:41;;;;;;;8.60;2.85;;;15.20;99.90;;;;;;5087573;28;20078;-83
2022/05/27 08:45:41;;;;;;;3.13;2.40;;;15.40;99.90;;;;;;5085805;28;20361;-85
2022/05/27 08:48:34;;;;;;;6.88;2.80;;;15.60;99.90;;;;;;5089073;28;20079;-86
2022/05/27 08:52:04;;;;;;;6.63;2.80;;;15.90;99.90;;;;;;5084910;28;20151;-86
2022/05/27 09:01:43;;;;;;;4.00;2.55;;;15.90;99.90;;;;;;5076940;28;20133;-83
2022/05/27 09:04:46;;;;;;;6.45;2.55;;;16.20;99.90;;;;;;5083152;28;20050;-86
2022/05/27 09:07:42;;;;;;;;;;;16.10;99.90;;;;;;5091290;28;20098;-85
2022/05/27 09:10:40;;;;;;;6.20;2.15;;;16.40;99.90;;;;;;5078926;28;20371;-86
2022/05/27 09:13:40;;;;;;;5.50;2.10;;;17.00;99.90;;;;;;5095489;28;20566;-83
2022/05/27 09:16:32;;;;;;;4.32;2.10;;;17.70;99.90;;;;;;5083120;28;20051;-83
2022/05/27 09:19:25;;;;;;;6.03;2.20;;;17.90;99.90;;;;;;5082941;28;20048;-86
2022/05/27 09:22:32;;;;;;;5.57;1.80;;;17.70;99.90;;;;;;5113785;28;20055;-85
2022/05/27 09:25:51;;;;;;;2.72;1.80;;;17.50;99.90;;;;;;5075685;28;20101;-84
2022/05/27 09:28:48;;;;;;;3.53;1.80;;;17.70;99.90;;;;;;5075271;28;20524;-84
2022/05/27 09:31:38;;;;;;;3.20;1.63;;;17.70;99.90;;;;;;5097172;28;20059;-85
2022/05/27 09:34:30;;;;;;;4.80;1.60;;;17.70;99.90;;;;;;5107423;28;20045;-84
2022/05/27 09:37:33;;;;;;;3.38;1.67;;;17.80;99.90;;;;;;5083121;28;20145;-85
2022/05/27 09:41:03;;;;;;;5.45;1.80;;;17.80;99.90;;;;;;5060678;28;20449;-88
2022/05/27 09:44:15;;;;;;;2.65;1.73;;;18.00;99.90;;;;;;5072378;28;20118;-89
2022/05/27 09:47:04;;;;;;;4.00;1.40;;;19.20;99.90;;;;;;5096125;28;20164;-84
2022/05/27 09:50:24;;;;;;;2.22;1.40;;;19.90;99.90;;;;;;5113502;28;20043;-86
2022/05/27 09:53:19;;;;;;;3.67;1.27;;;20.00;99.90;;;;;;5105242;28;20159;-88
2022/05/27 09:56:15;;;;;;;2.95;1.38;;;20.60;98.00;;;;;;5089157;28;20044;-88
2022/05/27 09:59:36;;;;;;;1.45;1.00;;;21.20;94.60;;;;;;5106683;28;20111;-88
2022/05/27 10:02:26;;;;;;;3.85;1.17;;;21.10;92.10;;;;;;5105981;28;20044;-88
2022/05/27 10:05:17;;;;;;;2.67;1.50;;;21.10;91.90;;;;;;5090665;28;20096;-81
2022/05/27 10:08:04;;;;;;;4.32;1.15;;;21.20;90.50;;;;;;5079285;28;20066;-86
2022/05/27 10:11:21;;;;;;;3.53;1.40;;;20.10;92.20;;;;;;5083804;28;20059;-85
2022/05/27 10:14:19;;;;;;;4.40;1.20;;;19.90;94.10;;;;;;5089518;28;20056;-84
2022/05/27 10:17:17;;;;;;;4.20;1.40;;;20.30;93.90;;;;;;5089403;28;20043;-88
2022/05/27 10:20:19;;;;;;;4.97;1.30;;;21.50;92.30;;;;;;5092574;28;20393;-86
2022/05/27 10:23:24;;;;;;;1.95;1.17;;;22.00;81.70;;;;;;5084903;28;20048;-84
2022/05/27 10:26:23;;;;;;;4.18;1.13;;;21.80;80.30;;;;;;5082460;28;20051;-90
2022/05/27 10:29:16;;;;;;;2.15;1.30;;;20.60;81.80;;;;;;5094679;28;20077;-88
2022/05/27 10:32:04;;;;;;;2.58;1.10;;;20.60;82.40;;;;;;5081325;28;20461;-89
2022/05/27 10:34:51;;;;;;;1.83;1.20;;;21.40;78.50;;;;;;5094828;28;20036;-90
2022/05/27 10:38:10;;;;;;;2.45;1.15;;;22.10;76.20;;;;;;5104295;28;20062;-87
2022/05/27 10:41:34;;;;;;;1.10;1.00;;;22.70;76.20;;;;;;5091126;28;20055;-86
2022/05/27 10:44:27;;;;;;;1.42;1.00;;;22.40;73.70;;;;;;5082857;28;20048;-83
2022/05/27 10:47:41;;;;;;;2.97;1.10;;;22.70;72.00;;;;;;5083315;28;20046;-86
2022/05/27 10:50:39;;;;;;;4.25;0.90;;;23.60;68.90;;;;;;5080065;28;20097;-84
2022/05/27 10:53:48;;;;;;;1.88;1.00;;;23.60;67.70;;;;;;5093324;28;20424;-85
2022/05/27 11:02:04;;;;;;;3.28;1.20;;;23.20;67.00;;;;;;5093722;28;20427;-84
2022/05/27 11:03:39;;;;;;;5.88;1.45;;;21.00;76.10;;;;;;5083994;28;20413;-84
2022/05/27 11:06:55;;;;;;;2.97;1.40;;;20.20;79.60;;;;;;5081362;28;20052;-85
2022/05/27 11:09:55;;;;;;;4.05;1.20;;;19.60;82.40;;;;;;5073641;28;20388;-87
2022/05/27 11:16:28;;;;;;;3.10;1.30;;;20.00;78.40;;;;;;5085677;28;20055;-85
2022/05/27 11:20:09;;;;;;;1.30;1.10;;;19.40;81.50;;;;;;5091267;28;20083;-87
2022/05/27 11:23:20;;;;;;;1.17;1.00;;;19.20;83.80;;;;;;5004762;28;20149;-87
2022/05/27 11:26:51;;;;;;;4.03;1.15;;;19.00;82.80;;;;;;5080495;28;20097;-87
2022/05/27 11:29:48;;;;;;;3.08;1.23;;;18.60;82.40;;;;;;5085968;28;20623;-81
2022/05/27 11:32:53;;;;;;;1.73;1.20;;;18.90;81.90;;;;;;5094197;28;20281;-85
2022/05/27 11:35:52;;;;;;;2.22;1.30;;;18.80;82.00;;;;;;5082310;28;20105;-86
2022/05/27 11:38:52;;;;;;;2.58;1.00;;;18.80;83.80;;;;;;5065766;28;20051;-83
2022/05/27 11:42:17;;;;;;;1.90;1.00;;;18.80;85.20;;;;;;5097650;28;20047;-83
2022/05/27 11:45:21;;;;;;;1.67;0.90;;;18.80;85.00;;;;;;5098320;28;20072;-86
2022/05/27 11:48:37;;;;;;;1.90;1.05;;;18.90;84.30;;;;;;5094765;28;20199;-82
2022/05/27 11:51:42;;;;;;;4.47;1.33;;;19.50;82.80;;;;;;5076462;28;20056;-87
2022/05/27 11:54:38;;;;;;;2.17;1.23;;;19.80;79.60;;;;;;5091315;28;20055;-86
2022/05/27 11:58:03;;;;;;;3.70;0.90;;;19.60;81.90;;;;;;5116764;28;20044;-83
2022/05/27 12:01:15;;;;;;;3.38;1.35;;;19.30;84.60;;;;;;5108426;28;20052;-82
2022/05/27 12:04:38;;;;;;;1.58;1.00;;;19.40;85.80;;;;;;5112346;28;20044;-81
2022/05/27 12:07:48;;;;;;;;;;;19.30;83.30;;;;;;5111259;28;20048;-82
2022/05/27 12:10:49;;;;;;;2.80;1.00;;;19.40;84.10;;;;;;5085606;28;20007;-86
2022/05/27 12:13:49;;;;;;;1.60;0.80;;;19.30;83.00;;;;;;5117493;28;20113;-84
2022/05/27 12:16:39;;;;;;;4.40;1.20;;;19.50;85.20;;;;;;5124231;28;20047;-85
2022/05/27 12:19:32;;;;;;;2.78;1.10;;;20.10;83.30;;;;;;5092444;28;20119;-85
2022/05/27 12:22:25;;;;;;;1.77;1.20;;;20.00;81.50;;;;;;5109224;28;20109;-84
2022/05/27 12:25:21;;;;;;;;;;;19.70;83.30;;;;;;5104157;28;20132;-86
2022/05/27 12:28:10;;;;;;;3.17;1.10;;;19.10;85.30;;;;;;5099154;28;19932;-85
2022/05/27 12:30:59;;;;;;;2.65;1.13;;;19.30;88.40;;;;;;5094466;28;20064;-85
2022/05/27 12:33:47;;;;;;;2.63;1.20;;;20.00;86.70;;;;;;5098445;28;20411;-85
2022/05/27 12:36:36;;;;;;;3.15;1.10;;;21.10;81.50;;;;;;5083673;28;20113;-85
2022/05/27 12:39:29;;;;;;;2.75;0.95;;;21.60;80.00;;;;;;5073382;28;20045;-84
2022/05/27 12:42:20;;;;;;;1.98;0.98;;;20.80;79.30;;;;;;5079724;28;20168;-84
2022/05/27 12:45:36;;;;;;;2.50;1.30;;;20.30;82.50;;;;;;5096129;28;20043;-83
2022/05/27 12:48:39;;;;;;;2.13;0.93;;;20.10;82.80;;;;;;5111727;28;20155;-83
2022/05/27 12:51:38;;;;;;;4.03;0.98;;;21.50;80.20;;;;;;5079285;28;20048;-84
2022/05/27 12:54:48;;;;;;;3.25;1.02;;;21.50;75.50;;;;;;5074259;28;20052;-87
2022/05/27 13:00:57;;;;;;;2.60;1.05;;;19.40;83.70;;;;;;5096653;28;20062;-85
2022/05/27 13:03:50;;;;;;;4.32;1.20;;;18.80;86.80;;;;;;5106530;28;20047;-85
2022/05/27 13:06:40;;;;;;;2.08;0.98;;;18.80;87.60;;;;;;5092182;28;20108;-83
2022/05/27 13:09:46;;;;;;;1.92;1.15;;;18.70;88.40;;;;;;5086708;28;20044;-86
2022/05/27 13:12:48;;;;;;;1.13;1.02;;;18.60;88.30;;;;;;5106779;28;20477;-88
2022/05/27 13:16:24;;;;;;;2.65;1.40;;;18.50;90.20;;;;;;5091043;28;20128;-84
2022/05/27 13:19:26;;;;;;;1.98;1.20;;;18.40;90.60;;;;;;5060148;28;20052;-84
2022/05/27 13:22:40;;;;;;;5.47;1.40;;;18.30;90.80;;;;;;5072658;28;20037;-84
2022/05/27 13:25:36;;;;;;;4.35;1.48;;;18.30;91.30;;;;;;5074577;28;20054;-83
2022/05/27 13:28:32;;;;;;;6.45;1.20;;;18.60;90.90;;;;;;5087959;28;20045;-87
2022/05/27 13:31:44;;;;;;;1.70;1.10;;;19.00;91.50;;;;;;5072538;28;20108;-86
2022/05/27 13:34:39;;;;;;;1.30;1.13;;;19.10;88.40;;;;;;5088149;28;20384;-83
2022/05/27 13:37:41;;;;;;;5.78;1.20;;;19.40;88.40;;;;;;5060244;28;20057;-85
2022/05/27 13:40:30;;;;;;;1.67;1.00;;;19.80;87.90;;;;;;5105416;28;20419;-85
2022/05/27 13:43:19;;;;;;;1.80;0.90;;;20.20;85.60;;;;;;5063120;28;20580;-85
2022/05/27 13:46:33;;;;;;;2.95;0.70;;;20.40;83.10;;;;;;5087423;28;20105;-88
2022/05/27 13:49:39;;;;;;;5.07;1.10;;;20.70;82.70;;;;;;5093840;28;20056;-86
2022/05/27 13:52:35;;;;;;;2.50;1.00;;;20.20;82.30;;;;;;5093087;28;20072;-87
2022/05/27 13:55:29;;;;;;;3.72;1.27;;;19.70;86.20;;;;;;5084859;28;20055;-86
2022/05/27 13:58:16;;;;;;;1.48;1.02;;;19.40;85.80;;;;;;5091556;28;20051;-86
2022/05/27 14:01:05;;;;;;;1.35;0.73;;;19.00;87.40;;;;;;5098952;28;20044;-88
2022/05/27 14:04:05;;;;;;;2.70;1.10;;;18.80;87.80;;;;;;5098692;28;20051;-87
2022/05/27 14:06:52;;;;;;;1.13;0.82;;;18.70;89.10;;;;;;5106494;28;20052;-89
2022/05/27 14:09:46;;;;;;;0.75;0.75;;;18.70;89.50;;;;;;5089597;28;20048;-83
2022/05/27 14:12:37;;;;;;;1.27;0.77;;;18.90;89.50;;;;;;5094602;28;20101;-86
2022/05/27 14:15:29;;;;;;;1.33;0.80;;;18.90;89.60;;;;;;5092287;28;20102;-84
2022/05/27 14:18:29;;;;;;;1.67;0.68;;;18.80;90.20;;;;;;5096234;28;20051;-83
2022/05/27 14:24:34;;;;;;;1.13;0.80;;;18.80;91.60;;;;;;5075546;28;20072;-84
2022/05/27 14:27:26;;;;;;;1.25;0.90;;;18.80;91.00;;;;;;5080394;28;20515;-84
2022/05/27 14:30:19;;;;;;;2.70;0.93;;;19.00;91.60;;;;;;5109372;28;20074;-88
2022/05/27 14:33:24;;;;;;;;;;;19.30;90.40;;;;;;5101609;28;20048;-86
2022/05/27 14:36:20;;;;;;;1.42;1.17;;;19.50;90.00;;;;;;5085572;28;19946;-86
2022/05/27 14:39:10;;;;;;;2.85;0.90;;;19.80;89.00;;;;;;5103354;28;20460;-87
2022/05/27 14:42:00;;;;;;;1.08;0.80;;;20.50;87.00;;;;;;5073668;28;20131;-85
2022/05/27 14:44:49;;;;;;;2.63;0.90;;;21.10;82.10;;;;;;5076146;28;20117;-86
2022/05/27 14:47:38;;;;;;;2.25;0.80;;;22.00;81.00;;;;;;5091996;28;20147;-87
2022/05/27 14:50:33;;;;;;;2.65;1.00;;;22.80;76.80;;;;;;5093792;28;20055;-84
2022/05/27 14:53:22;;;;;;;4.45;2.05;;;22.70;75.40;;;;;;5089917;28;20048;-85
2022/05/27 14:56:12;;;;;;;0.98;0.85;;;22.80;75.10;;;;;;5095631;28;20119;-85
2022/05/27 14:59:08;;;;;;;1.35;0.73;;;22.70;74.80;;;;;;5083286;28;20072;-81
2022/05/27 15:01:58;;;;;;;1.15;0.80;;;22.70;72.80;;;;;;5098629;28;20048;-84
2022/05/27 15:04:57;;;;;;;1.17;0.80;;;22.30;74.50;;;;;;5081720;28;20123;-88
2022/05/27 15:07:50;;;;;;;1.90;1.02;;;22.50;72.10;;;;;;5095433;28;20145;-86
2022/05/27 15:10:40;;;;;;;1.35;0.90;;;23.60;72.10;;;;;;5098129;28;20044;-86
2022/05/27 15:13:30;;;;;;;3.70;0.95;;;24.60;71.60;;;;;;5081628;28;20072;-86
2022/05/27 15:16:38;;;;;;;1.05;0.70;;;25.80;64.40;;;;;;5108966;28;20446;-84
2022/05/27 15:19:38;;;;;;;1.27;0.90;;;24.70;65.90;;;;;;5082948;28;20052;-84
2022/05/27 15:22:26;;;;;;;1.05;0.88;;;23.70;68.20;;;;;;5097002;28;20056;-86
2022/05/27 15:25:17;;;;;;;2.20;0.60;;;23.60;69.90;;;;;;5091545;28;20364;-87
2022/05/27 15:34:27;;;;;;;0.88;0.60;;;22.90;71.40;;;;;;5108178;28;20048;-86
2022/05/27 15:37:15;;;;;;;0.85;0.60;;;21.70;74.10;;;;;;5111568;28;20073;-82
2022/05/27 15:40:03;;;;;;;1.55;0.75;;;20.60;78.70;;;;;;5101094;28;20052;-81
2022/05/27 15:42:51;;;;;;;1.25;0.73;;;19.50;82.40;;;;;;5111931;28;20078;-83
2022/05/27 15:45:41;;;;;;;1.13;0.70;;;19.10;87.00;;;;;;5083819;28;20520;-83
2022/05/27 15:48:29;;;;;;;0.60;0.60;;;19.20;87.40;;;;;;5092235;28;20036;-87
2022/05/27 15:51:16;;;;;;;1.02;0.60;;;19.20;88.50;;;;;;5091552;28;20051;-85
2022/05/27 15:54:05;;;;;;;0.68;0.68;;;19.00;90.10;;;;;;5086888;28;20141;-87